Time;durP1;ratioP1;P1;durP2;ratioP2;P2;SDS_P1;SDS_P2;PMS_P1;PMS_P2;Temp;Humidity;BMP_temperature;BMP_pressure;BME280_temperature;BME280_humidity;BME280_pressure;Samples;Min_cycle;Max_cycle;Signal;HPM_P1;HPM_P2
2023/10/21 00:00:44;;;;;;;58.60;26.97;;;;;;;;;;5099711;28;20491;-80
2023/10/21 00:03:10;;;;;;;55.97;28.70;;;;;;;;;;5109602;28;20541;-81
2023/10/21 00:05:36;;;;;;;60.17;29.30;;;;;;;;;;5107497;28;20526;-81
2023/10/21 00:08:05;;;;;;;69.93;29.20;;;;;;;;;;5103463;28;20486;-80
2023/10/21 00:10:32;;;;;;;55.80;28.13;;;;;;;;;;5108003;28;20485;-82
2023/10/21 00:12:58;;;;;;;54.13;29.30;;;;;;;;;;5103691;28;20465;-82
2023/10/21 00:15:25;;;;;;;59.20;29.07;;;;;;;;;;5101671;28;20479;-82
2023/10/21 00:17:51;;;;;;;62.67;27.63;;;;;;;;;;5109438;28;20506;-83
2023/10/21 00:20:18;;;;;;;57.70;27.30;;;;;;;;;;5103539;28;21102;-82
2023/10/21 00:22:45;;;;;;;51.70;26.77;;;;;;;;;;5102153;28;20530;-82
2023/10/21 00:25:12;;;;;;;57.57;27.67;;;;;;;;;;5104515;28;20987;-82
2023/10/21 00:27:39;;;;;;;59.03;26.10;;;;;;;;;;5107217;28;20490;-82
2023/10/21 00:30:06;;;;;;;50.50;26.67;;;;;;;;;;5107504;28;20502;-82
2023/10/21 00:32:32;;;;;;;58.13;28.43;;;;;;;;;;5107153;28;20479;-82
2023/10/21 00:34:58;;;;;;;48.80;25.60;;;;;;;;;;5103098;28;20468;-82
2023/10/21 00:37:25;;;;;;;53.00;26.43;;;;;;;;;;5098219;28;20448;-82
2023/10/21 00:39:51;;;;;;;52.33;26.37;;;;;;;;;;5104567;28;20475;-82
2023/10/21 00:42:19;;;;;;;51.20;25.80;;;;;;;;;;5096045;28;20535;-82
2023/10/21 00:44:45;;;;;;;46.80;24.23;;;;;;;;;;5101562;28;20483;-82
2023/10/21 00:47:12;;;;;;;56.83;26.47;;;;;;;;;;5100638;28;20496;-81
2023/10/21 00:49:38;;;;;;;47.20;26.73;;;;;;;;;;5104811;28;20510;-81
2023/10/21 00:52:05;;;;;;;43.77;23.50;;;;;;;;;;5108603;28;20455;-81
2023/10/21 00:54:31;;;;;;;48.37;25.07;;;;;;;;;;5091068;28;20448;-82
2023/10/21 00:56:58;;;;;;;44.40;22.97;;;;;;;;;;5106438;28;20490;-82
2023/10/21 00:59:26;;;;;;;43.13;22.97;;;;;;;;;;5111108;28;20447;-82
2023/10/21 01:01:53;;;;;;;48.77;24.50;;;;;;;;;;5110413;28;20446;-81
2023/10/21 01:04:19;;;;;;;47.77;23.93;;;;;;;;;;5111074;28;20478;-82
2023/10/21 01:06:46;;;;;;;36.93;20.07;;;;;;;;;;5105692;28;20533;-82
2023/10/21 01:09:14;;;;;;;44.80;21.40;;;;;;;;;;5118348;28;20473;-82
2023/10/21 01:11:40;;;;;;;41.87;21.17;;;;;;;;;;5106653;28;20454;-82
2023/10/21 01:14:09;;;;;;;44.30;20.90;;;;;;;;;;5100930;28;20455;-82
2023/10/21 01:16:36;;;;;;;42.90;19.60;;;;;;;;;;5109830;28;20509;-82
2023/10/21 01:19:05;;;;;;;42.23;19.63;;;;;;;;;;5106613;28;20498;-81
2023/10/21 01:21:32;;;;;;;39.87;19.50;;;;;;;;;;5108200;28;20515;-81
2023/10/21 01:23:59;;;;;;;37.67;17.57;;;;;;;;;;5105326;28;20581;-82
2023/10/21 01:26:26;;;;;;;30.70;17.20;;;;;;;;;;5104158;28;20476;-82
2023/10/21 01:28:52;;;;;;;37.97;17.90;;;;;;;;;;5109714;28;20462;-82
2023/10/21 01:31:19;;;;;;;31.10;19.20;;;;;;;;;;5110757;28;20494;-82
2023/10/21 01:33:45;;;;;;;35.33;17.47;;;;;;;;;;5112612;28;20462;-82
2023/10/21 01:36:11;;;;;;;34.63;17.70;;;;;;;;;;5103027;28;20547;-82
2023/10/21 01:38:38;;;;;;;28.87;14.93;;;;;;;;;;5104917;28;20519;-82
2023/10/21 01:41:08;;;;;;;27.13;17.17;;;;;;;;;;5108670;28;20459;-82
2023/10/21 01:43:34;;;;;;;32.57;17.57;;;;;;;;;;5110894;28;20550;-82
2023/10/21 01:46:05;;;;;;;31.67;17.30;;;;;;;;;;5106139;28;20559;-82
2023/10/21 01:48:31;;;;;;;32.30;16.47;;;;;;;;;;5105609;28;20835;-82
2023/10/21 01:51:02;;;;;;;32.70;17.77;;;;;;;;;;5103010;28;20512;-82
2023/10/21 01:53:29;;;;;;;27.70;15.47;;;;;;;;;;5105238;28;20459;-81
2023/10/21 01:55:59;;;;;;;29.43;15.33;;;;;;;;;;5105281;28;21421;-82
2023/10/21 01:58:27;;;;;;;26.77;15.80;;;;;;;;;;5104034;28;20519;-82
2023/10/21 02:00:53;;;;;;;32.80;15.63;;;;;;;;;;5095787;28;20475;-82
2023/10/21 02:03:20;;;;;;;32.73;15.27;;;;;;;;;;5108440;28;20561;-82
2023/10/21 02:05:46;;;;;;;32.30;17.10;;;;;;;;;;5105075;28;21062;-82
2023/10/21 02:08:12;;;;;;;28.10;15.13;;;;;;;;;;5103337;28;20450;-82
2023/10/21 02:10:39;;;;;;;24.57;15.00;;;;;;;;;;5102430;28;20545;-82
2023/10/21 02:13:07;;;;;;;23.33;14.13;;;;;;;;;;5106993;28;20463;-82
2023/10/21 02:15:36;;;;;;;29.13;15.60;;;;;;;;;;5106603;28;20507;-82
2023/10/21 02:18:04;;;;;;;30.00;16.23;;;;;;;;;;5105201;28;20522;-82
2023/10/21 02:20:30;;;;;;;33.00;16.80;;;;;;;;;;5109295;28;20474;-82
2023/10/21 02:22:56;;;;;;;29.60;15.90;;;;;;;;;;5101165;28;20535;-82
2023/10/21 02:25:23;;;;;;;31.70;15.80;;;;;;;;;;5106527;28;20605;-82
2023/10/21 02:27:49;;;;;;;26.67;14.87;;;;;;;;;;5097692;28;20453;-82
2023/10/21 02:30:16;;;;;;;32.63;16.13;;;;;;;;;;5104822;28;20490;-82
2023/10/21 02:32:45;;;;;;;28.83;15.27;;;;;;;;;;5102755;28;20984;-82
2023/10/21 02:35:11;;;;;;;31.97;17.53;;;;;;;;;;5103225;28;20462;-82
2023/10/21 02:37:38;;;;;;;27.83;16.13;;;;;;;;;;5112466;28;20537;-82
2023/10/21 02:40:05;;;;;;;26.60;15.50;;;;;;;;;;5107645;28;20461;-82
2023/10/21 02:42:31;;;;;;;40.13;16.17;;;;;;;;;;5110304;28;20519;-82
2023/10/21 02:44:59;;;;;;;33.83;18.03;;;;;;;;;;5109150;28;20577;-82
2023/10/21 02:47:26;;;;;;;34.60;16.07;;;;;;;;;;5108184;28;20465;-82
2023/10/21 02:49:54;;;;;;;33.03;16.80;;;;;;;;;;5106344;28;21101;-81
2023/10/21 02:52:20;;;;;;;35.57;16.97;;;;;;;;;;5101159;28;20490;-82
2023/10/21 02:54:46;;;;;;;30.67;17.43;;;;;;;;;;5110697;28;20899;-82
2023/10/21 02:57:13;;;;;;;30.43;17.33;;;;;;;;;;5107985;28;20466;-82
2023/10/21 02:59:39;;;;;;;32.80;17.80;;;;;;;;;;5100280;28;20447;-82
2023/10/21 03:02:05;;;;;;;33.37;16.20;;;;;;;;;;5102127;28;20482;-83
2023/10/21 03:04:32;;;;;;;34.40;18.83;;;;;;;;;;5107016;28;21098;-82
2023/10/21 03:07:00;;;;;;;34.60;17.80;;;;;;;;;;5103165;28;20459;-82
2023/10/21 03:09:26;;;;;;;32.10;17.13;;;;;;;;;;5100572;28;20451;-82
2023/10/21 03:11:53;;;;;;;31.20;17.40;;;;;;;;;;5105103;28;20467;-81
2023/10/21 03:14:19;;;;;;;37.67;19.50;;;;;;;;;;5091012;28;20815;-82
2023/10/21 03:16:48;;;;;;;33.63;16.80;;;;;;;;;;5103554;28;20524;-82
2023/10/21 03:19:14;;;;;;;33.13;17.40;;;;;;;;;;5101896;28;20465;-82
2023/10/21 03:21:41;;;;;;;32.93;16.93;;;;;;;;;;5096443;28;20535;-82
2023/10/21 03:24:09;;;;;;;32.27;18.50;;;;;;;;;;5104247;28;21302;-82
2023/10/21 03:26:35;;;;;;;30.77;18.07;;;;;;;;;;5105304;28;20455;-82
2023/10/21 03:29:02;;;;;;;38.30;18.57;;;;;;;;;;5102636;28;20474;-82
2023/10/21 03:31:28;;;;;;;38.57;18.57;;;;;;;;;;5106324;28;20457;-82
2023/10/21 03:33:54;;;;;;;31.80;17.73;;;;;;;;;;5108123;28;20462;-82
2023/10/21 03:36:21;;;;;;;30.10;17.10;;;;;;;;;;5103135;28;20527;-82
2023/10/21 03:38:47;;;;;;;35.33;18.87;;;;;;;;;;5102640;28;20511;-82
2023/10/21 03:41:16;;;;;;;37.13;19.53;;;;;;;;;;5101676;28;20550;-82
2023/10/21 03:43:42;;;;;;;31.47;17.57;;;;;;;;;;5107658;28;20486;-82
2023/10/21 03:46:11;;;;;;;32.73;18.10;;;;;;;;;;5116204;28;20473;-82
2023/10/21 03:48:37;;;;;;;36.40;17.60;;;;;;;;;;5099333;28;20491;-83
2023/10/21 03:51:05;;;;;;;39.13;19.50;;;;;;;;;;5106174;28;20538;-83
2023/10/21 03:53:32;;;;;;;41.80;18.20;;;;;;;;;;5103238;28;20461;-82
2023/10/21 03:55:59;;;;;;;34.03;18.33;;;;;;;;;;5107076;28;20457;-82
2023/10/21 03:58:27;;;;;;;41.07;19.60;;;;;;;;;;5103838;28;20565;-82
2023/10/21 04:00:54;;;;;;;36.10;18.70;;;;;;;;;;5102740;28;20473;-83
2023/10/21 04:03:20;;;;;;;34.57;19.97;;;;;;;;;;5098319;28;20463;-83
2023/10/21 04:05:47;;;;;;;36.30;18.67;;;;;;;;;;5102194;28;20450;-82
2023/10/21 04:08:13;;;;;;;45.30;19.70;;;;;;;;;;5107246;28;20481;-82
2023/10/21 04:10:39;;;;;;;45.83;18.80;;;;;;;;;;5108330;28;20476;-82
2023/10/21 04:13:06;;;;;;;36.17;19.10;;;;;;;;;;5103986;28;20455;-82
2023/10/21 04:15:34;;;;;;;39.67;18.77;;;;;;;;;;5106570;28;20468;-82
2023/10/21 04:18:00;;;;;;;40.57;19.07;;;;;;;;;;5102775;28;20518;-82
2023/10/21 04:20:27;;;;;;;42.10;19.10;;;;;;;;;;5102222;28;20474;-82
2023/10/21 04:22:53;;;;;;;51.40;20.60;;;;;;;;;;5099281;28;20768;-82
2023/10/21 04:25:21;;;;;;;47.00;18.93;;;;;;;;;;5104803;28;20477;-82
2023/10/21 04:27:47;;;;;;;38.13;18.50;;;;;;;;;;5098463;28;20481;-82
2023/10/21 04:30:14;;;;;;;35.70;17.50;;;;;;;;;;5102723;28;20519;-81
2023/10/21 04:32:42;;;;;;;43.67;17.10;;;;;;;;;;5101694;28;20555;-81
2023/10/21 04:35:09;;;;;;;37.67;17.30;;;;;;;;;;5103918;28;20435;-81
2023/10/21 04:37:35;;;;;;;32.13;14.80;;;;;;;;;;5112983;28;20873;-80
2023/10/21 04:40:02;;;;;;;33.70;16.43;;;;;;;;;;5104462;28;20493;-81
2023/10/21 04:42:29;;;;;;;28.57;15.50;;;;;;;;;;5105777;28;20447;-81
2023/10/21 04:44:56;;;;;;;26.70;14.13;;;;;;;;;;5107713;28;20521;-81
2023/10/21 04:47:22;;;;;;;31.67;16.43;;;;;;;;;;5115261;28;20549;-81
2023/10/21 04:49:50;;;;;;;27.20;14.43;;;;;;;;;;5102112;27;20563;-81
2023/10/21 04:52:25;;;;;;;29.80;15.23;;;;;;;;;;5105114;28;20546;-81
2023/10/21 04:54:52;;;;;;;30.63;15.07;;;;;;;;;;5101014;28;20478;-81
2023/10/21 04:57:18;;;;;;;27.30;13.63;;;;;;;;;;5108804;28;20519;-83
2023/10/21 04:59:45;;;;;;;23.97;12.07;;;;;;;;;;5104216;28;20526;-83
2023/10/21 05:02:11;;;;;;;25.70;13.30;;;;;;;;;;5106773;28;20447;-83
2023/10/21 05:04:38;;;;;;;28.87;12.67;;;;;;;;;;5107001;28;20474;-85
2023/10/21 05:07:06;;;;;;;22.23;12.10;;;;;;;;;;5113523;28;20454;-85
2023/10/21 05:09:33;;;;;;;19.83;11.10;;;;;;;;;;5111105;28;20947;-82
2023/10/21 05:11:59;;;;;;;23.50;12.40;;;;;;;;;;5105878;27;20523;-82
2023/10/21 05:14:26;;;;;;;21.17;12.00;;;;;;;;;;5104461;28;20450;-82
2023/10/21 05:16:52;;;;;;;26.73;13.10;;;;;;;;;;5102597;28;20518;-83
2023/10/21 05:19:19;;;;;;;24.43;11.63;;;;;;;;;;5106538;28;20501;-84
2023/10/21 05:21:45;;;;;;;25.00;13.87;;;;;;;;;;5106969;28;20481;-84
2023/10/21 05:24:13;;;;;;;23.60;13.20;;;;;;;;;;5107436;28;20585;-83
2023/10/21 05:26:39;;;;;;;27.33;14.03;;;;;;;;;;5114582;28;20486;-83
2023/10/21 05:29:07;;;;;;;23.83;14.33;;;;;;;;;;5107910;28;20455;-82
2023/10/21 05:31:33;;;;;;;24.17;13.50;;;;;;;;;;5107048;28;20451;-84
2023/10/21 05:34:00;;;;;;;28.90;12.93;;;;;;;;;;5114919;28;20977;-84
2023/10/21 05:36:27;;;;;;;23.20;13.17;;;;;;;;;;5108539;28;20539;-82
2023/10/21 05:38:53;;;;;;;30.93;14.30;;;;;;;;;;5116892;28;20533;-83
2023/10/21 05:41:21;;;;;;;29.90;15.07;;;;;;;;;;5110909;28;20451;-82
2023/10/21 05:43:48;;;;;;;21.10;13.23;;;;;;;;;;5111261;28;20527;-82
2023/10/21 05:46:14;;;;;;;19.93;13.17;;;;;;;;;;5117586;28;20458;-83
2023/10/21 05:48:41;;;;;;;26.73;13.80;;;;;;;;;;5103506;28;20490;-80
2023/10/21 05:51:07;;;;;;;35.53;16.50;;;;;;;;;;5104745;28;20523;-81
2023/10/21 05:53:34;;;;;;;25.33;13.50;;;;;;;;;;5113097;28;20485;-81
2023/10/21 05:56:00;;;;;;;22.70;13.70;;;;;;;;;;5102986;28;20477;-81
2023/10/21 05:58:28;;;;;;;31.53;14.50;;;;;;;;;;5117246;28;20772;-80
2023/10/21 06:00:54;;;;;;;28.33;14.17;;;;;;;;;;5108478;28;20526;-81
2023/10/21 06:03:21;;;;;;;24.80;14.00;;;;;;;;;;5104370;28;20998;-83
2023/10/21 06:05:49;;;;;;;26.50;14.40;;;;;;;;;;5103900;28;20551;-82
2023/10/21 06:08:16;;;;;;;28.33;14.23;;;;;;;;;;5103676;28;20462;-82
2023/10/21 06:10:44;;;;;;;26.43;14.13;;;;;;;;;;5107147;28;20514;-83
2023/10/21 06:13:10;;;;;;;23.77;13.03;;;;;;;;;;5107106;28;20451;-82
2023/10/21 06:15:39;;;;;;;34.90;16.50;;;;;;;;;;5105501;28;20943;-82
2023/10/21 06:18:06;;;;;;;37.40;16.53;;;;;;;;;;5104255;28;20462;-82
2023/10/21 06:20:33;;;;;;;28.90;15.57;;;;;;;;;;5102164;28;20527;-82
2023/10/21 06:22:59;;;;;;;35.63;16.20;;;;;;;;;;5103288;28;20478;-82
2023/10/21 06:25:26;;;;;;;31.07;16.00;;;;;;;;;;5104778;28;20509;-81
2023/10/21 06:27:52;;;;;;;31.13;15.40;;;;;;;;;;5103111;28;21023;-82
2023/10/21 06:30:19;;;;;;;30.63;14.03;;;;;;;;;;5104547;28;20491;-82
2023/10/21 06:32:46;;;;;;;29.50;14.20;;;;;;;;;;5102506;28;20490;-85
2023/10/21 06:35:13;;;;;;;27.80;14.20;;;;;;;;;;5104853;28;20554;-86
2023/10/21 06:37:40;;;;;;;22.17;13.53;;;;;;;;;;5101309;28;20503;-86
2023/10/21 06:40:07;;;;;;;23.93;11.90;;;;;;;;;;5103842;28;20584;-86
2023/10/21 06:42:33;;;;;;;17.77;10.47;;;;;;;;;;5096609;28;20487;-86
2023/10/21 06:45:00;;;;;;;15.90;10.30;;;;;;;;;;5101080;28;20479;-86
2023/10/21 06:47:26;;;;;;;20.90;10.00;;;;;;;;;;5101036;28;20960;-86
2023/10/21 06:49:54;;;;;;;10.90;7.60;;;;;;;;;;5101789;28;20494;-85
2023/10/21 06:52:20;;;;;;;8.93;6.20;;;;;;;;;;5103415;28;20466;-85
2023/10/21 06:54:47;;;;;;;6.50;4.33;;;;;;;;;;5107665;28;20463;-85
2023/10/21 06:57:20;;;;;;;6.30;4.70;;;;;;;;;;5107369;28;20455;-84
2023/10/21 06:59:46;;;;;;;5.90;4.57;;;;;;;;;;5101799;28;20531;-86
2023/10/21 07:02:12;;;;;;;6.83;6.10;;;;;;;;;;5095374;28;21085;-85
2023/10/21 07:04:39;;;;;;;6.63;4.83;;;;;;;;;;5106101;28;20546;-85
2023/10/21 07:07:06;;;;;;;9.87;6.00;;;;;;;;;;5104542;28;20501;-79
2023/10/21 07:09:33;;;;;;;8.83;5.97;;;;;;;;;;5093004;28;20524;-79
2023/10/21 07:11:59;;;;;;;9.00;5.67;;;;;;;;;;5106762;28;20537;-78
2023/10/21 07:14:26;;;;;;;10.97;6.90;;;;;;;;;;5099916;28;21103;-80
2023/10/21 07:16:53;;;;;;;14.20;7.70;;;;;;;;;;5110276;28;20466;-80
2023/10/21 07:19:19;;;;;;;12.20;7.90;;;;;;;;;;5110503;28;20459;-80
2023/10/21 07:21:46;;;;;;;13.90;8.20;;;;;;;;;;5106255;28;20489;-79
2023/10/21 07:24:14;;;;;;;12.00;8.67;;;;;;;;;;5101754;28;20447;-80
2023/10/21 07:26:40;;;;;;;11.90;8.57;;;;;;;;;;5101796;28;20509;-80
2023/10/21 07:29:07;;;;;;;15.73;8.90;;;;;;;;;;5104577;28;20489;-80
2023/10/21 07:31:33;;;;;;;12.73;9.17;;;;;;;;;;5101006;28;20899;-81
2023/10/21 07:34:00;;;;;;;11.43;8.07;;;;;;;;;;5104853;28;20449;-81
2023/10/21 07:36:26;;;;;;;12.00;8.90;;;;;;;;;;5096361;28;20459;-82
2023/10/21 07:38:53;;;;;;;14.17;9.80;;;;;;;;;;5105190;28;20455;-82
2023/10/21 07:41:21;;;;;;;12.17;8.57;;;;;;;;;;5100862;28;20498;-89
2023/10/21 07:43:48;;;;;;;11.43;8.40;;;;;;;;;;5103038;28;20449;-91
2023/10/21 07:47:39;;;;;;;13.87;9.47;;;;;;;;;;5157219;27;20541;-81
2023/10/21 07:50:07;;;;;;;15.17;9.70;;;;;;;;;;5139343;27;20446;-80
2023/10/21 07:52:34;;;;;;;21.90;12.33;;;;;;;;;;5131604;27;20461;-80
2023/10/21 07:55:00;;;;;;;24.80;13.80;;;;;;;;;;5139528;27;20449;-80
2023/10/21 07:57:26;;;;;;;24.00;13.87;;;;;;;;;;5134490;27;20513;-80
2023/10/21 07:59:53;;;;;;;27.27;13.77;;;;;;;;;;5146472;27;20449;-80
2023/10/21 08:02:19;;;;;;;29.17;16.33;;;;;;;;;;5141580;27;20581;-82
2023/10/21 08:04:48;;;;;;;33.03;17.47;;;;;;;;;;5122435;28;20857;-80
2023/10/21 08:07:15;;;;;;;32.17;16.27;;;;;;;;;;5113706;28;20486;-80
2023/10/21 08:09:41;;;;;;;35.33;17.50;;;;;;;;;;5121832;28;20515;-80
2023/10/21 08:12:09;;;;;;;37.00;18.47;;;;;;;;;;5119506;28;20549;-81
2023/10/21 08:14:36;;;;;;;39.30;18.97;;;;;;;;;;5120732;28;20489;-80
2023/10/21 08:17:04;;;;;;;41.27;18.43;;;;;;;;;;5115515;28;20571;-80
2023/10/21 08:19:31;;;;;;;30.00;16.33;;;;;;;;;;5122342;28;20524;-81
2023/10/21 08:21:58;;;;;;;30.00;16.47;;;;;;;;;;5124280;28;20484;-79
2023/10/21 08:24:25;;;;;;;31.10;16.70;;;;;;;;;;5122920;28;20476;-80
2023/10/21 08:26:52;;;;;;;27.00;16.27;;;;;;;;;;5124605;28;20462;-80
2023/10/21 08:29:20;;;;;;;24.23;15.30;;;;;;;;;;5124169;27;20478;-80
2023/10/21 08:31:46;;;;;;;25.07;15.00;;;;;;;;;;5127431;28;20963;-80
2023/10/21 08:34:13;;;;;;;27.67;16.13;;;;;;;;;;5120906;28;20458;-80
2023/10/21 08:36:40;;;;;;;31.03;16.43;;;;;;;;;;5129875;28;20552;-80
2023/10/21 08:39:08;;;;;;;25.90;14.83;;;;;;;;;;5128005;28;20496;-80
2023/10/21 08:41:36;;;;;;;23.23;13.73;;;;;;;;;;5126038;28;21001;-80
2023/10/21 08:44:02;;;;;;;24.00;13.87;;;;;;;;;;5121214;28;20438;-80
2023/10/21 08:46:32;;;;;;;26.33;13.57;;;;;;;;;;5127494;28;20525;-80
2023/10/21 08:48:58;;;;;;;29.03;15.67;;;;;;;;;;5117292;28;20474;-80
2023/10/21 08:51:26;;;;;;;28.27;12.77;;;;;;;;;;5124231;28;20445;-79
2023/10/21 08:53:54;;;;;;;18.40;13.20;;;;;;;;;;5118196;28;20454;-80
2023/10/21 08:56:22;;;;;;;22.30;12.70;;;;;;;;;;5116564;28;20539;-79
2023/10/21 08:58:48;;;;;;;17.23;11.80;;;;;;;;;;5102585;28;20450;-80
2023/10/21 09:01:15;;;;;;;16.00;11.27;;;;;;;;;;5108820;28;20846;-80
2023/10/21 09:03:42;;;;;;;12.67;9.47;;;;;;;;;;5101884;28;20465;-79
2023/10/21 09:06:11;;;;;;;11.70;8.03;;;;;;;;;;5108491;28;20480;-80
2023/10/21 09:08:38;;;;;;;12.87;9.37;;;;;;;;;;5110918;28;20439;-81
2023/10/21 09:11:07;;;;;;;11.30;7.73;;;;;;;;;;5110549;28;20459;-81
2023/10/21 09:13:35;;;;;;;11.13;7.13;;;;;;;;;;5113784;28;20451;-81
2023/10/21 09:16:04;;;;;;;7.07;6.10;;;;;;;;;;5107815;28;20538;-80
2023/10/21 09:18:31;;;;;;;6.40;4.80;;;;;;;;;;5105552;28;20465;-80
2023/10/21 09:20:59;;;;;;;5.20;4.43;;;;;;;;;;5103925;28;20490;-81
2023/10/21 09:23:26;;;;;;;5.53;3.90;;;;;;;;;;5103296;28;20545;-80
2023/10/21 09:25:54;;;;;;;5.13;4.33;;;;;;;;;;5109296;28;20459;-81
2023/10/21 09:28:20;;;;;;;5.33;4.10;;;;;;;;;;5112297;28;20980;-81
2023/10/21 09:30:57;;;;;;;6.00;4.30;;;;;;;;;;5099583;28;20451;-79
2023/10/21 09:33:23;;;;;;;4.30;3.90;;;;;;;;;;5103258;28;20466;-78
2023/10/21 09:36:00;;;;;;;4.83;3.60;;;;;;;;;;5110327;28;20454;-79
2023/10/21 09:38:26;;;;;;;5.20;3.43;;;;;;;;;;5111935;28;20869;-81
2023/10/21 09:40:52;;;;;;;3.30;3.00;;;;;;;;;;5105566;28;20454;-80
2023/10/21 09:43:21;;;;;;;2.80;2.60;;;;;;;;;;5108113;28;20493;-80
2023/10/21 09:45:49;;;;;;;2.83;2.50;;;;;;;;;;5104956;28;20834;-80
2023/10/21 09:48:17;;;;;;;2.90;2.70;;;;;;;;;;5107354;28;20458;-80
2023/10/21 09:50:46;;;;;;;2.40;2.20;;;;;;;;;;5109468;28;20472;-79
2023/10/21 09:53:15;;;;;;;2.90;2.60;;;;;;;;;;5103627;28;20458;-81
2023/10/21 09:55:41;;;;;;;2.17;1.97;;;;;;;;;;5114533;28;20478;-80
2023/10/21 09:58:09;;;;;;;1.80;1.70;;;;;;;;;;5104939;28;20563;-82
2023/10/21 10:00:35;;;;;;;2.00;1.90;;;;;;;;;;5106590;28;20486;-80
2023/10/21 10:03:02;;;;;;;1.73;1.63;;;;;;;;;;5101650;28;20913;-82
2023/10/21 10:05:30;;;;;;;1.80;1.67;;;;;;;;;;5100899;28;20447;-80
2023/10/21 10:07:57;;;;;;;1.73;1.63;;;;;;;;;;5103154;28;20461;-81
2023/10/21 10:10:25;;;;;;;1.73;1.63;;;;;;;;;;5105767;28;20496;-81
2023/10/21 10:12:53;;;;;;;1.80;1.70;;;;;;;;;;5107176;28;20480;-79
2023/10/21 10:15:28;;;;;;;3.50;1.33;;;;;;;;;;5102731;28;20454;-79
2023/10/21 10:17:55;;;;;;;1.50;1.40;;;;;;;;;;5108102;28;20481;-81
2023/10/21 10:20:24;;;;;;;1.30;1.30;;;;;;;;;;5098997;28;20447;-81
2023/10/21 10:22:58;;;;;;;1.97;1.60;;;;;;;;;;5104574;28;20541;-80
2023/10/21 10:25:25;;;;;;;1.50;1.40;;;;;;;;;;5103493;28;20439;-80
2023/10/21 10:27:56;;;;;;;1.67;1.50;;;;;;;;;;5104653;28;20693;-80
2023/10/21 10:30:23;;;;;;;1.73;1.20;;;;;;;;;;5105003;28;20504;-79
2023/10/21 10:32:50;;;;;;;1.30;1.30;;;;;;;;;;5103184;28;20710;-81
2023/10/21 10:35:29;;;;;;;1.30;1.20;;;;;;;;;;5108538;28;20450;-80
2023/10/21 10:37:59;;;;;;;1.47;1.37;;;;;;;;;;5102682;28;20493;-80
2023/10/21 10:40:32;;;;;;;2.17;1.60;;;;;;;;;;5106388;28;20458;-81
2023/10/21 10:42:59;;;;;;;1.40;1.30;;;;;;;;;;5104892;28;21156;-82
2023/10/21 10:45:26;;;;;;;2.07;1.40;;;;;;;;;;5108450;28;20533;-80
2023/10/21 10:47:57;;;;;;;1.73;1.37;;;;;;;;;;5106485;28;20538;-80
2023/10/21 10:50:24;;;;;;;2.50;1.30;;;;;;;;;;5107893;28;20466;-80
2023/10/21 10:52:50;;;;;;;1.40;1.30;;;;;;;;;;5105641;28;20764;-80
2023/10/21 10:55:19;;;;;;;1.50;1.40;;;;;;;;;;5112724;28;20455;-81
2023/10/21 10:57:46;;;;;;;1.53;1.43;;;;;;;;;;5103366;28;20516;-80
2023/10/21 11:00:20;;;;;;;1.60;1.50;;;;;;;;;;5105011;28;20485;-80
2023/10/21 11:02:46;;;;;;;2.10;1.57;;;;;;;;;;5107297;28;20448;-80
2023/10/21 11:05:16;;;;;;;6.90;1.60;;;;;;;;;;5103975;28;20450;-80
2023/10/21 11:07:42;;;;;;;2.20;1.60;;;;;;;;;;5110643;28;20450;-80
2023/10/21 11:10:09;;;;;;;1.53;1.43;;;;;;;;;;5103138;28;20463;-80
2023/10/21 11:12:37;;;;;;;2.33;1.90;;;;;;;;;;5103285;28;20447;-81
2023/10/21 11:15:06;;;;;;;1.90;1.80;;;;;;;;;;5107257;28;20482;-81
2023/10/21 11:17:33;;;;;;;5.20;4.90;;;;;;;;;;5108717;28;20474;-82
2023/10/21 11:20:00;;;;;;;5.40;5.10;;;;;;;;;;5106350;28;20455;-81
2023/10/21 11:22:26;;;;;;;1.70;1.60;;;;;;;;;;5114476;28;20459;-82
2023/10/21 11:24:53;;;;;;;1.40;1.30;;;;;;;;;;5107987;28;20495;-81
2023/10/21 11:27:20;;;;;;;1.33;1.23;;;;;;;;;;5112704;28;20447;-82
2023/10/21 11:29:51;;;;;;;1.90;1.80;;;;;;;;;;5111318;28;20448;-81
2023/10/21 11:32:24;;;;;;;1.90;1.80;;;;;;;;;;5104881;28;20478;-82
2023/10/21 11:34:51;;;;;;;2.33;2.23;;;;;;;;;;5102354;28;20458;-82
2023/10/21 11:37:19;;;;;;;2.20;2.10;;;;;;;;;;5102770;28;20480;-81
2023/10/21 11:39:45;;;;;;;3.03;2.90;;;;;;;;;;5104138;28;20526;-82
2023/10/21 11:42:15;;;;;;;2.60;2.40;;;;;;;;;;5103563;28;20461;-81
2023/10/21 11:44:43;;;;;;;2.00;1.90;;;;;;;;;;5105747;28;20640;-79
2023/10/21 11:47:11;;;;;;;2.63;2.43;;;;;;;;;;5098338;28;20491;-80
2023/10/21 11:49:38;;;;;;;3.07;2.97;;;;;;;;;;5102107;28;20459;-82
2023/10/21 11:52:09;;;;;;;2.07;1.97;;;;;;;;;;5100821;28;20477;-78
2023/10/21 11:54:39;;;;;;;1.70;1.60;;;;;;;;;;5100400;28;20489;-80
2023/10/21 12:31:24;;;;;;;2.60;2.40;;;;;;;;;;5140038;27;20448;-84
2023/10/21 12:33:54;;;;;;;2.63;2.43;;;;;;;;;;5140353;27;20445;-83
2023/10/21 12:36:33;;;;;;;2.73;2.53;;;;;;;;;;5139783;27;20469;-84
2023/10/21 12:41:40;;;;;;;2.63;2.40;;;;;;;;;;5140413;27;20433;-85
2023/10/21 12:44:13;;;;;;;3.17;2.40;;;;;;;;;;5138703;28;20449;-85
2023/10/21 12:46:40;;;;;;;3.10;2.90;;;;;;;;;;5140544;27;20481;-85
2023/10/21 12:49:12;;;;;;;2.67;2.57;;;;;;;;;;5140483;27;20473;-84
2023/10/21 12:51:39;;;;;;;2.37;2.27;;;;;;;;;;5138541;28;20445;-84
2023/10/21 12:54:09;;;;;;;2.80;2.13;;;;;;;;;;5136806;28;20445;-84
2023/10/21 12:56:36;;;;;;;2.67;2.47;;;;;;;;;;5137926;27;20456;-84
2023/10/21 12:59:02;;;;;;;2.40;2.20;;;;;;;;;;5140981;27;20488;-85
2023/10/21 13:01:31;;;;;;;2.70;2.50;;;;;;;;;;5140568;27;20442;-85
2023/10/21 13:03:57;;;;;;;2.63;2.53;;;;;;;;;;5138030;27;20441;-85
2023/10/21 13:06:23;;;;;;;2.77;2.67;;;;;;;;;;5137735;27;20477;-84
2023/10/21 13:08:51;;;;;;;2.67;2.57;;;;;;;;;;5135625;27;20489;-84
2023/10/21 13:11:17;;;;;;;2.67;2.50;;;;;;;;;;5139931;27;20930;-87
2023/10/21 13:13:44;;;;;;;4.23;2.90;;;;;;;;;;5137647;27;20528;-87
2023/10/21 13:16:10;;;;;;;3.40;3.10;;;;;;;;;;5139080;27;20449;-85
2023/10/21 13:18:38;;;;;;;3.10;2.77;;;;;;;;;;5137091;27;20453;-83
2023/10/21 13:21:06;;;;;;;2.63;2.43;;;;;;;;;;5139937;27;20469;-84
2023/10/21 13:23:34;;;;;;;3.00;2.70;;;;;;;;;;5137878;27;20453;-85
2023/10/21 13:26:01;;;;;;;2.37;2.27;;;;;;;;;;5138447;27;20497;-86
2023/10/21 13:28:27;;;;;;;2.63;2.43;;;;;;;;;;5141197;27;20485;-86
2023/10/21 13:30:53;;;;;;;2.33;2.23;;;;;;;;;;5138699;27;20445;-86
2023/10/21 13:33:20;;;;;;;2.77;2.57;;;;;;;;;;5135602;27;20510;-87
2023/10/21 13:35:48;;;;;;;3.40;3.10;;;;;;;;;;5140016;27;20513;-86
2023/10/21 13:38:15;;;;;;;2.70;2.50;;;;;;;;;;5124531;27;20548;-86
2023/10/21 13:40:43;;;;;;;2.70;2.57;;;;;;;;;;5128732;27;20453;-86
2023/10/21 14:25:55;;;;;;;5.50;5.10;;;;;;;;;;4889025;26;20584;-73
2023/10/21 14:28:25;;;;;;;6.53;3.97;;;;;;;;;;5082215;28;20447;-73
2023/10/21 14:30:52;;;;;;;2.10;1.63;;;;;;;;;;5052800;28;20475;-72
2023/10/21 14:33:19;;;;;;;2.40;1.90;;;;;;;;;;5070612;28;20470;-73
2023/10/21 14:35:47;;;;;;;2.73;2.43;;;;;;;;;;5082796;28;20535;-73
2023/10/21 14:38:14;;;;;;;4.00;2.10;;;;;;;;;;5081751;28;20927;-72
2023/10/21 14:40:41;;;;;;;2.37;1.53;;;;;;;;;;5083549;28;20475;-73
2023/10/21 14:43:09;;;;;;;1.90;1.73;;;;;;;;;;5078456;28;21078;-73
2023/10/21 14:45:37;;;;;;;2.50;1.27;;;;;;;;;;5080842;28;20500;-77
2023/10/21 14:48:04;;;;;;;2.53;2.23;;;;;;;;;;5087163;28;20486;-78
2023/10/21 14:50:32;;;;;;;3.47;2.27;;;;;;;;;;5081553;28;20460;-78
2023/10/21 14:52:58;;;;;;;3.00;2.73;;;;;;;;;;5079310;28;20460;-77
2023/10/21 14:55:24;;;;;;;3.50;3.17;;;;;;;;;;5085079;28;20502;-77
2023/10/21 14:57:51;;;;;;;3.20;2.97;;;;;;;;;;5083411;28;20456;-78
2023/10/21 15:00:22;;;;;;;3.50;3.20;;;;;;;;;;5082391;28;20484;-79
2023/10/21 15:02:49;;;;;;;3.57;3.37;;;;;;;;;;5077005;28;20460;-79
2023/10/21 15:05:15;;;;;;;3.73;2.93;;;;;;;;;;5080382;28;20538;-81
2023/10/21 15:07:42;;;;;;;3.20;2.90;;;;;;;;;;5077039;28;20562;-78
2023/10/21 15:10:10;;;;;;;3.30;3.00;;;;;;;;;;5073516;28;20984;-76
2023/10/21 15:12:36;;;;;;;4.30;2.63;;;;;;;;;;5081553;28;20456;-75
2023/10/21 15:15:04;;;;;;;3.70;2.70;;;;;;;;;;5081275;28;20452;-73
2023/10/21 15:17:32;;;;;;;3.20;2.30;;;;;;;;;;5079971;28;20523;-73
2023/10/21 15:19:58;;;;;;;2.40;2.20;;;;;;;;;;5080734;28;20918;-73
2023/10/21 15:22:24;;;;;;;5.30;2.80;;;;;;;;;;5075147;28;20523;-76
2023/10/21 15:24:51;;;;;;;3.23;2.40;;;;;;;;;;5080329;28;20524;-76
2023/10/21 15:27:17;;;;;;;2.83;2.63;;;;;;;;;;5073489;28;20477;-77
2023/10/21 15:29:44;;;;;;;4.37;2.40;;;;;;;;;;5080127;28;20479;-78
2023/10/21 15:32:10;;;;;;;3.00;2.70;;;;;;;;;;5080065;28;20452;-79
2023/10/21 15:34:38;;;;;;;2.47;2.33;;;;;;;;;;5078561;28;20484;-79
2023/10/21 15:37:06;;;;;;;3.40;3.00;;;;;;;;;;5080059;28;20910;-79
2023/10/21 15:39:32;;;;;;;5.03;2.77;;;;;;;;;;5080155;28;20480;-78
2023/10/21 15:41:59;;;;;;;3.40;2.80;;;;;;;;;;5080467;28;20527;-78
2023/10/21 15:44:25;;;;;;;4.10;3.50;;;;;;;;;;5078965;28;20456;-78
2023/10/21 15:46:53;;;;;;;4.97;2.60;;;;;;;;;;5080330;28;20514;-77
2023/10/21 15:49:20;;;;;;;2.27;2.17;;;;;;;;;;5080558;28;20540;-78